Terminal Aerodrome Forecast
Issued by NWS

Current Version | Previous Version | Text Only | Print | Product List | Glossary On
Versions: 1 2 3 4 5 6 7 8 9 10 11 12 13 14 15 16 17 18
000
FTUS42 KTAE 301100
TAFABY
TAF
KABY 301120Z 3012/0112 36005KT P6SM OVC007
     FM301500 05005KT P6SM BKN025
     FM301900 05005KT P6SM SCT030
     FM010200 VRB02KT P6SM SKC=

USA.gov is the U.S. government's official web portal to all federal, state and local government web resources and services.